createdAt,value
2023-04-10T10:48:40.533Z,15.60
2023-04-10T10:51:08.859Z,17.20
2023-04-10T10:53:45.201Z,17.80
2023-04-10T10:56:25.811Z,18.10
2023-04-10T10:58:56.134Z,17.90
2023-04-10T11:01:24.191Z,17.80
2023-04-10T11:03:52.308Z,18.20
2023-04-10T11:06:21.340Z,18.00
2023-04-10T11:08:51.918Z,18.70
2023-04-10T11:11:27.588Z,19.30
2023-04-10T11:13:58.336Z,19.10
2023-04-10T11:16:33.091Z,19.30
2023-04-10T11:19:13.880Z,18.90
2023-04-10T11:22:02.060Z,19.10
2023-04-10T11:24:30.649Z,18.80
2023-04-10T11:26:58.710Z,18.80
2023-04-10T11:29:34.332Z,18.50
2023-04-10T11:32:06.054Z,18.40
2023-04-10T11:34:33.837Z,18.40
2023-04-10T11:37:03.164Z,18.80
2023-04-10T11:39:31.590Z,18.60
2023-04-10T11:41:59.318Z,18.60
2023-04-10T11:44:26.636Z,18.50
2023-04-10T11:46:54.699Z,18.70
2023-04-10T11:49:25.687Z,18.50
2023-04-10T11:51:53.288Z,18.20
2023-04-10T11:54:23.097Z,18.30
2023-04-10T11:57:09.179Z,18.30
2023-04-10T11:59:36.510Z,18.30
2023-04-10T12:02:14.915Z,18.30
2023-04-10T12:04:44.342Z,18.50
2023-04-10T12:07:15.725Z,18.50
2023-04-10T12:09:43.631Z,18.60
2023-04-10T12:12:11.827Z,18.60
2023-04-10T12:14:41.169Z,18.80
2023-04-10T12:17:11.245Z,19.00
2023-04-10T12:19:39.623Z,18.70
2023-04-10T12:22:07.784Z,18.90
2023-04-10T12:24:44.560Z,18.80
2023-04-10T12:27:22.650Z,18.60
2023-04-10T12:29:52.482Z,18.20
2023-04-10T12:32:20.805Z,18.10
2023-04-10T12:35:01.597Z,18.30
2023-04-10T12:37:49.445Z,17.90
2023-04-10T12:40:17.253Z,17.60
2023-04-10T12:42:44.961Z,17.40
2023-04-10T12:45:14.166Z,17.30
2023-04-10T12:47:51.948Z,17.40
2023-04-10T12:50:23.606Z,17.30
2023-04-10T12:53:11.627Z,17.40
2023-04-10T12:55:46.143Z,17.30
2023-04-10T12:58:28.036Z,17.30
2023-04-10T13:00:56.545Z,17.20
2023-04-10T13:03:24.318Z,17.00
2023-04-10T13:05:52.365Z,17.00
2023-04-10T13:08:21.225Z,17.10
2023-04-10T13:10:49.610Z,17.20
2023-04-10T13:13:19.972Z,17.40
2023-04-10T13:15:48.024Z,17.20
2023-04-10T13:18:15.658Z,17.10
2023-04-10T13:20:43.181Z,16.90
2023-04-10T13:23:12.088Z,16.80
2023-04-10T13:25:40.644Z,16.80
2023-04-10T13:28:11.583Z,16.90
2023-04-10T13:30:41.918Z,16.90
2023-04-10T13:33:10.515Z,16.80
2023-04-10T13:35:50.332Z,16.80
2023-04-10T13:38:19.251Z,16.80
2023-04-10T13:40:50.631Z,16.80
2023-04-10T13:43:18.046Z,17.00
2023-04-10T13:45:47.819Z,17.20
2023-04-10T13:48:24.457Z,17.20
2023-04-10T13:50:54.476Z,17.40
2023-04-10T13:53:21.973Z,17.30
2023-04-10T13:55:50.248Z,17.40
2023-04-10T13:58:17.542Z,17.50
2023-04-10T14:00:45.254Z,17.60
2023-04-10T14:03:15.688Z,17.70
2023-04-10T14:05:43.362Z,17.80
2023-04-10T14:08:12.038Z,17.80
2023-04-10T14:10:46.371Z,17.50
2023-04-10T14:13:13.831Z,17.40
2023-04-10T14:15:41.254Z,17.20
2023-04-10T14:18:09.160Z,17.20
2023-04-10T14:20:36.664Z,17.30
2023-04-10T14:23:07.454Z,17.50
2023-04-10T14:25:34.840Z,17.40
2023-04-10T14:28:05.622Z,17.30
2023-04-10T14:30:33.581Z,17.30
2023-04-10T14:33:01.543Z,17.10
2023-04-10T14:35:29.111Z,17.20
2023-04-10T14:37:56.712Z,17.20
2023-04-10T14:40:25.904Z,17.10
2023-04-10T14:42:53.551Z,17.00
2023-04-10T14:45:21.054Z,17.00
2023-04-10T14:47:49.148Z,17.20
2023-04-10T14:50:16.834Z,17.10
2023-04-10T14:52:44.867Z,17.10
2023-04-10T14:55:13.068Z,17.00
2023-04-10T14:57:41.129Z,16.90
2023-04-10T15:00:11.146Z,16.60
2023-04-10T15:02:39.126Z,16.40
2023-04-10T15:05:07.254Z,16.30
2023-04-10T15:07:36.114Z,16.20
2023-04-10T15:10:04.281Z,16.00
2023-04-10T15:12:31.944Z,15.70
2023-04-10T15:14:59.383Z,15.50
2023-04-10T15:17:26.907Z,15.30
2023-04-10T15:19:54.414Z,15.30
2023-04-10T15:22:21.758Z,15.20
2023-04-10T15:24:51.120Z,15.20
2023-04-10T15:27:21.692Z,15.10
2023-04-10T15:29:49.333Z,15.00
2023-04-10T15:32:16.866Z,14.80
2023-04-10T15:34:44.913Z,14.80
2023-04-10T15:37:12.532Z,14.80
2023-04-10T15:39:39.980Z,14.80
2023-04-10T15:42:08.462Z,14.80
2023-04-10T15:44:37.145Z,14.80
2023-04-10T15:47:06.716Z,14.70
2023-04-10T15:49:38.415Z,14.70
2023-04-10T15:52:07.834Z,14.70
2023-04-10T15:54:36.426Z,14.70
2023-04-10T15:57:04.279Z,14.70
2023-04-10T15:59:33.565Z,14.70
2023-04-10T16:02:01.338Z,14.60
2023-04-10T16:04:29.510Z,14.60
2023-04-10T16:06:57.091Z,14.60
2023-04-10T16:09:26.820Z,14.50
2023-04-10T16:11:56.316Z,14.40
2023-04-10T16:14:23.843Z,14.30
2023-04-10T16:16:52.132Z,14.00
2023-04-10T16:19:20.810Z,13.60
2023-04-10T16:21:48.496Z,13.30
2023-04-10T16:24:16.867Z,13.10
2023-04-10T16:26:44.299Z,12.90
2023-04-10T16:29:12.072Z,12.90
2023-04-10T16:31:39.628Z,12.60
2023-04-10T16:34:07.321Z,12.50
2023-04-10T16:36:37.540Z,12.40
2023-04-10T16:39:05.936Z,12.30
2023-04-10T16:41:33.630Z,12.30
2023-04-10T16:44:01.235Z,12.30
2023-04-10T16:46:28.899Z,12.20
2023-04-10T16:48:56.903Z,12.20
2023-04-10T16:51:24.707Z,12.20
2023-04-10T16:53:52.344Z,12.10
2023-04-10T16:56:21.338Z,12.10
2023-04-10T16:58:48.919Z,12.20
2023-04-10T17:01:18.780Z,12.10
2023-04-10T17:03:48.015Z,12.30
2023-04-10T17:06:16.933Z,12.30
2023-04-10T17:08:52.720Z,12.30
2023-04-10T17:11:20.324Z,12.30
2023-04-10T17:13:47.833Z,12.30
2023-04-10T17:16:16.176Z,12.30
2023-04-10T17:18:43.954Z,12.10
2023-04-10T17:21:14.871Z,12.10
2023-04-10T17:23:46.020Z,12.00
2023-04-10T17:26:26.693Z,11.90
2023-04-10T17:28:57.358Z,12.00
2023-04-10T17:31:25.015Z,12.00
2023-04-10T17:33:52.563Z,12.00
2023-04-10T17:36:20.032Z,11.90
2023-04-10T17:38:47.475Z,11.80
2023-04-10T17:41:16.475Z,11.80
2023-04-10T17:43:44.140Z,11.80
2023-04-10T17:46:15.703Z,11.90
2023-04-10T17:48:44.236Z,11.80
2023-04-10T17:51:12.160Z,11.80
2023-04-10T17:53:39.605Z,11.60
2023-04-10T17:56:08.125Z,11.70
2023-04-10T17:58:36.175Z,11.60
2023-04-10T18:01:03.651Z,11.60
2023-04-10T18:03:31.833Z,11.50
2023-04-10T18:05:59.914Z,11.50
2023-04-10T18:08:29.772Z,11.50
2023-04-10T18:10:59.204Z,11.50
2023-04-10T18:13:29.373Z,11.60
2023-04-10T18:15:57.166Z,11.50
2023-04-10T18:18:25.597Z,11.50
2023-04-10T18:20:53.938Z,11.50
2023-04-10T18:23:25.952Z,11.50
2023-04-10T18:25:54.600Z,11.60
2023-04-10T18:28:23.441Z,11.60
2023-04-10T18:30:59.286Z,11.50
2023-04-10T18:33:27.484Z,11.60
2023-04-10T18:35:57.917Z,11.50
2023-04-10T18:38:28.467Z,11.50
2023-04-10T18:40:57.925Z,11.50
2023-04-10T18:43:27.568Z,11.70
2023-04-10T18:45:56.388Z,11.60
2023-04-10T18:48:24.012Z,11.50
2023-04-10T18:50:54.509Z,11.60
2023-04-10T18:53:22.559Z,11.60
2023-04-10T18:55:53.858Z,11.60
2023-04-10T18:58:22.479Z,11.60
2023-04-10T19:00:50.108Z,11.60
2023-04-10T19:03:17.683Z,11.60
2023-04-10T19:05:45.526Z,11.60
2023-04-10T19:08:14.636Z,11.70
2023-04-10T19:10:43.050Z,11.60
2023-04-10T19:13:12.072Z,11.70
2023-04-10T19:15:44.653Z,11.60
2023-04-10T19:18:14.086Z,11.60
2023-04-10T19:20:48.813Z,11.60
2023-04-10T19:23:19.168Z,11.60
2023-04-10T19:25:46.882Z,11.60
2023-04-10T19:28:14.309Z,11.70
2023-04-10T19:30:41.718Z,11.60
2023-04-10T19:33:09.208Z,11.70
2023-04-10T19:35:36.735Z,11.60
2023-04-10T19:38:04.189Z,11.70
2023-04-10T19:40:32.268Z,11.70
2023-04-10T19:43:00.525Z,11.60
2023-04-10T19:45:29.340Z,11.50
2023-04-10T19:47:57.299Z,11.40
2023-04-10T19:50:24.835Z,11.40
2023-04-10T19:52:52.492Z,11.20
2023-04-10T19:55:20.123Z,11.20
2023-04-10T19:57:48.245Z,11.20
2023-04-10T20:00:16.030Z,11.30
2023-04-10T20:02:44.014Z,11.20
2023-04-10T20:05:11.666Z,11.20
2023-04-10T20:07:39.236Z,11.30
2023-04-10T20:10:07.422Z,11.30
2023-04-10T20:12:34.900Z,11.20
2023-04-10T20:15:03.637Z,11.20
2023-04-10T20:17:31.723Z,11.10
2023-04-10T20:19:59.201Z,11.10
2023-04-10T20:22:27.219Z,11.00
2023-04-10T20:24:54.869Z,11.00
2023-04-10T20:27:22.286Z,11.00
2023-04-10T20:29:50.650Z,11.00
2023-04-10T20:32:18.450Z,11.00
2023-04-10T20:34:45.968Z,11.00
2023-04-10T20:37:17.364Z,11.00
2023-04-10T20:39:44.903Z,11.00
2023-04-10T20:42:12.376Z,11.00
2023-04-10T20:44:39.829Z,11.00
2023-04-10T20:47:07.451Z,10.90
2023-04-10T20:49:37.493Z,10.70
2023-04-10T20:52:07.274Z,10.70
2023-04-10T20:54:34.775Z,10.50
2023-04-10T20:57:02.353Z,10.60
2023-04-10T20:59:29.911Z,10.60
2023-04-10T21:01:59.031Z,10.60
2023-04-10T21:04:26.585Z,10.60
2023-04-10T21:06:54.069Z,10.70
2023-04-10T21:09:21.544Z,10.70
2023-04-10T21:11:48.958Z,10.70
2023-04-10T21:14:16.421Z,10.80
2023-04-10T21:16:45.975Z,10.70
2023-04-10T21:19:13.877Z,10.70
2023-04-10T21:21:41.406Z,10.80
2023-04-10T21:24:08.849Z,10.80
2023-04-10T21:26:36.349Z,10.80
2023-04-10T21:29:03.779Z,10.80
2023-04-10T21:31:31.273Z,10.90
2023-04-10T21:33:58.658Z,10.80
2023-04-10T21:36:26.669Z,10.70
2023-04-10T21:38:54.378Z,10.70
2023-04-10T21:41:21.903Z,10.70
2023-04-10T21:43:49.338Z,10.70
2023-04-10T21:46:16.876Z,10.70
2023-04-10T21:48:44.352Z,10.60
2023-04-10T21:51:11.750Z,10.60
2023-04-10T21:53:39.379Z,10.50
2023-04-10T21:56:07.135Z,10.50
2023-04-10T21:58:34.991Z,10.50
2023-04-10T22:01:02.520Z,10.60
2023-04-10T22:03:30.167Z,10.60
2023-04-10T22:05:58.048Z,10.50
2023-04-10T22:08:25.554Z,10.40
2023-04-10T22:10:53.072Z,10.40
2023-04-10T22:13:30.297Z,10.40
2023-04-10T22:16:00.337Z,10.40
2023-04-10T22:18:27.948Z,10.40
2023-04-10T22:20:55.620Z,10.30
2023-04-10T22:23:23.302Z,10.30
2023-04-10T22:25:51.054Z,10.20
2023-04-10T22:28:18.523Z,10.10
2023-04-10T22:30:46.266Z,10.10
2023-04-10T22:33:13.830Z,10.00
2023-04-10T22:35:41.299Z,10.00
2023-04-10T22:38:09.608Z,10.00
2023-04-10T22:40:37.079Z,9.90
2023-04-10T22:43:04.488Z,9.90
2023-04-10T22:45:31.971Z,9.80
2023-04-10T22:47:59.760Z,9.80
2023-04-10T22:50:27.259Z,9.70
2023-04-10T22:52:54.837Z,9.70
2023-04-10T22:55:22.617Z,9.60
2023-04-10T22:57:50.324Z,9.70
2023-04-10T23:00:18.084Z,9.70
2023-04-10T23:02:45.709Z,9.60
2023-04-10T23:05:13.223Z,9.60
2023-04-10T23:07:40.955Z,9.50
2023-04-10T23:10:09.153Z,9.50
2023-04-10T23:12:37.847Z,9.50
2023-04-10T23:15:07.136Z,9.50
2023-04-10T23:17:34.836Z,9.40
2023-04-10T23:20:02.436Z,9.40
2023-04-10T23:22:30.632Z,9.40
2023-04-10T23:24:58.344Z,9.50
2023-04-10T23:27:25.876Z,9.40
2023-04-10T23:29:53.479Z,9.40
2023-04-10T23:32:21.044Z,9.40
2023-04-10T23:34:48.589Z,9.40
2023-04-10T23:37:16.251Z,9.40
2023-04-10T23:39:43.823Z,9.50
2023-04-10T23:42:11.268Z,9.50
2023-04-10T23:44:38.915Z,9.50
2023-04-10T23:47:06.696Z,9.60
2023-04-10T23:49:35.480Z,9.60
2023-04-10T23:52:03.059Z,9.50
2023-04-10T23:54:30.740Z,9.50
2023-04-10T23:56:58.282Z,9.40
2023-04-10T23:59:26.050Z,9.40
